Terminal Aerodrome Forecast
Issued by NWS State College, PA

Current Version | Previous Version | Text Only | Print | Product List | Glossary On
Versions: 1 2 3 4 5 6 7 8 9 10 11 12 13 14 15 16 17 18 19 20 21 22
000
FTUS41 KCTP 112358 RRA
TAFIPT
TAF
KIPT 112358Z 1200/1224 09005KT P6SM OVC080
     FM120800 18005KT P6SM OVC030
     FM121000 13009G16KT 4SM -SN BR OVC015=

USA.gov is the U.S. government's official web portal to all federal, state and local government web resources and services.